createdAt,value
2023-04-28T00:01:45.318Z,11.50
2023-04-28T00:04:12.540Z,11.60
2023-04-28T00:06:41.116Z,11.60
2023-04-28T00:09:11.019Z,11.60
2023-04-28T00:11:38.593Z,11.60
2023-04-28T00:14:05.952Z,11.60
2023-04-28T00:16:32.811Z,11.50
2023-04-28T00:18:59.622Z,11.50
2023-04-28T00:21:28.955Z,11.40
2023-04-28T00:23:56.073Z,11.40
2023-04-28T00:26:22.948Z,11.50
2023-04-28T00:28:49.744Z,11.50
2023-04-28T00:31:17.020Z,11.40
2023-04-28T00:33:45.411Z,11.50
2023-04-28T00:36:13.641Z,11.30
2023-04-28T00:38:40.580Z,11.40
2023-04-28T00:41:11.055Z,11.30
2023-04-28T00:43:48.685Z,11.40
2023-04-28T00:46:33.349Z,11.30
2023-04-28T00:49:00.409Z,11.40
2023-04-28T00:51:29.825Z,11.40
2023-04-28T00:53:57.696Z,11.40
2023-04-28T00:56:27.830Z,11.40
2023-04-28T00:58:54.700Z,11.40
2023-04-28T01:01:21.565Z,11.40
2023-04-28T01:03:49.310Z,11.30
2023-04-28T01:06:18.050Z,11.20
2023-04-28T01:08:53.268Z,11.20
2023-04-28T01:11:20.852Z,11.30
2023-04-28T01:13:48.322Z,11.30
2023-04-28T01:16:15.270Z,11.20
2023-04-28T01:18:48.314Z,11.30
2023-04-28T01:21:15.230Z,11.30
2023-04-28T01:23:45.929Z,11.20
2023-04-28T01:26:13.715Z,11.30
2023-04-28T01:28:40.834Z,11.20
2023-04-28T01:31:14.760Z,11.20
2023-04-28T01:33:41.618Z,11.20
2023-04-28T01:36:09.002Z,11.20
2023-04-28T01:38:35.672Z,11.30
2023-04-28T01:41:05.106Z,11.30
2023-04-28T01:43:31.861Z,11.20
2023-04-28T01:45:58.625Z,11.20
2023-04-28T01:48:25.380Z,11.20
2023-04-28T01:50:52.140Z,11.20
2023-04-28T01:53:20.657Z,11.20
2023-04-28T01:55:47.570Z,11.10
2023-04-28T01:58:14.708Z,11.10
2023-04-28T02:00:41.453Z,11.10
2023-04-28T02:03:08.462Z,11.10
2023-04-28T02:05:35.300Z,11.10
2023-04-28T02:08:02.023Z,11.10
2023-04-28T02:10:29.192Z,11.10
2023-04-28T02:12:55.938Z,11.00
2023-04-28T02:15:22.681Z,11.10
2023-04-28T02:17:49.708Z,11.00
2023-04-28T02:20:16.761Z,11.10
2023-04-28T02:22:43.440Z,11.00
2023-04-28T02:25:10.735Z,11.00
2023-04-28T02:27:38.321Z,11.00
2023-04-28T02:30:06.689Z,11.00
2023-04-28T02:32:34.020Z,10.90
2023-04-28T02:35:00.856Z,11.00
2023-04-28T02:37:27.610Z,10.90
2023-04-28T02:39:54.347Z,11.00
2023-04-28T02:42:21.245Z,10.90
2023-04-28T02:44:48.015Z,10.90
2023-04-28T02:47:14.747Z,10.80
2023-04-28T02:49:41.511Z,11.00
2023-04-28T02:52:08.353Z,10.90
2023-04-28T02:54:36.815Z,10.90
2023-04-28T02:57:04.554Z,10.90
2023-04-28T02:59:31.371Z,10.80
2023-04-28T03:01:58.163Z,10.80
2023-04-28T03:04:25.095Z,10.90
2023-04-28T03:06:52.084Z,10.90
2023-04-28T03:09:18.853Z,10.80
2023-04-28T03:11:45.617Z,10.80
2023-04-28T03:14:15.368Z,10.80
2023-04-28T03:16:42.776Z,10.70
2023-04-28T03:19:09.542Z,10.70
2023-04-28T03:21:36.308Z,10.70
2023-04-28T03:24:06.901Z,10.70
2023-04-28T03:26:33.954Z,10.70
2023-04-28T03:29:00.666Z,10.80
2023-04-28T03:31:27.424Z,10.70
2023-04-28T03:33:54.299Z,10.70
2023-04-28T03:36:21.111Z,10.70
2023-04-28T03:38:48.162Z,10.70
2023-04-28T03:41:14.938Z,10.80
2023-04-28T03:43:41.763Z,10.80
2023-04-28T03:46:08.645Z,10.80
2023-04-28T03:48:35.434Z,10.70
2023-04-28T03:51:02.221Z,10.80
2023-04-28T03:53:29.437Z,10.80
2023-04-28T03:55:56.282Z,10.70
2023-04-28T03:58:23.083Z,10.80
2023-04-28T04:00:49.861Z,10.80
2023-04-28T04:03:17.498Z,10.80
2023-04-28T04:05:44.755Z,10.70
2023-04-28T04:08:12.076Z,10.70
2023-04-28T04:10:38.882Z,10.60
2023-04-28T04:13:05.626Z,10.70
2023-04-28T04:15:32.554Z,10.60
2023-04-28T04:17:59.496Z,10.70
2023-04-28T04:20:26.408Z,10.70
2023-04-28T04:22:53.151Z,10.80
2023-04-28T04:25:22.004Z,10.70
2023-04-28T04:27:50.222Z,10.70
2023-04-28T04:30:17.110Z,10.70
2023-04-28T04:32:43.841Z,10.70
2023-04-28T04:35:11.331Z,10.60
2023-04-28T04:37:38.522Z,10.60
2023-04-28T04:40:06.449Z,10.70
2023-04-28T04:42:33.325Z,10.70
2023-04-28T04:45:00.054Z,10.70
2023-04-28T04:47:27.077Z,10.70
2023-04-28T04:49:53.887Z,10.70
2023-04-28T04:52:20.620Z,10.80
2023-04-28T04:54:47.352Z,10.80
2023-04-28T04:57:14.410Z,10.80
2023-04-28T04:59:41.244Z,10.80
2023-04-28T05:02:08.305Z,10.80
2023-04-28T05:04:35.590Z,10.80
2023-04-28T05:07:02.317Z,10.80
2023-04-28T05:09:30.520Z,10.90
2023-04-28T05:11:58.191Z,10.80
2023-04-28T05:14:24.880Z,10.80
2023-04-28T05:16:51.738Z,10.80
2023-04-28T05:19:18.993Z,10.80
2023-04-28T05:21:47.596Z,10.90
2023-04-28T05:24:15.655Z,10.90
2023-04-28T05:26:42.733Z,10.90
2023-04-28T05:29:09.518Z,11.00
2023-04-28T05:31:36.306Z,10.90
2023-04-28T05:34:03.090Z,10.90
2023-04-28T05:36:30.200Z,10.90
2023-04-28T05:38:57.086Z,10.90
2023-04-28T05:41:23.873Z,10.90
2023-04-28T05:43:53.493Z,10.80
2023-04-28T05:48:55.881Z,10.80
2023-04-28T05:51:22.686Z,10.80
2023-04-28T05:53:49.442Z,10.80
2023-04-28T05:56:17.052Z,10.80
2023-04-28T05:58:50.730Z,10.90
2023-04-28T06:01:19.019Z,10.90
2023-04-28T06:03:46.208Z,10.90
2023-04-28T06:06:13.709Z,10.90
2023-04-28T06:08:40.890Z,10.90
2023-04-28T06:11:07.698Z,10.90
2023-04-28T06:13:34.403Z,11.00
2023-04-28T06:16:01.131Z,10.90
2023-04-28T06:18:32.376Z,10.90
2023-04-28T06:20:59.211Z,10.90
2023-04-28T06:23:26.148Z,10.90
2023-04-28T06:25:53.025Z,10.90
2023-04-28T06:28:19.769Z,10.90
2023-04-28T06:30:46.498Z,11.00
2023-04-28T06:33:13.277Z,11.00
2023-04-28T06:35:40.185Z,10.90
2023-04-28T06:38:07.400Z,11.00
2023-04-28T06:40:34.165Z,11.00
2023-04-28T06:43:00.939Z,11.10
2023-04-28T06:45:30.248Z,11.00
2023-04-28T06:47:57.093Z,11.10
2023-04-28T06:50:24.923Z,11.20
2023-04-28T06:52:53.083Z,11.20
2023-04-28T06:55:19.923Z,11.10
2023-04-28T06:57:46.860Z,11.20
2023-04-28T07:00:14.419Z,11.20
2023-04-28T07:02:41.242Z,11.20
2023-04-28T07:05:08.832Z,11.30
2023-04-28T07:07:38.612Z,11.30
2023-04-28T07:10:07.938Z,11.40
2023-04-28T07:12:34.623Z,11.50
2023-04-28T07:15:01.383Z,11.50
2023-04-28T07:17:28.186Z,11.60
2023-04-28T07:19:55.007Z,11.50
2023-04-28T07:22:21.760Z,11.50
2023-04-28T07:24:48.510Z,11.60
2023-04-28T07:27:15.293Z,11.50
2023-04-28T07:29:42.128Z,11.60
2023-04-28T07:32:10.594Z,11.60
2023-04-28T07:34:37.753Z,11.70
2023-04-28T07:37:04.810Z,11.80
2023-04-28T07:39:36.668Z,11.90
2023-04-28T07:42:03.784Z,11.90
2023-04-28T07:44:31.490Z,11.90
2023-04-28T07:47:01.769Z,12.00
2023-04-28T07:49:29.772Z,12.00
2023-04-28T07:51:56.772Z,12.00
2023-04-28T07:54:24.827Z,12.00
2023-04-28T07:56:51.917Z,11.90
2023-04-28T07:59:18.762Z,12.00
2023-04-28T08:01:45.617Z,12.10
2023-04-28T08:04:12.631Z,12.20
2023-04-28T08:06:40.802Z,12.10
2023-04-28T08:09:07.656Z,12.00
2023-04-28T08:11:34.678Z,12.00
2023-04-28T08:14:03.611Z,12.00
2023-04-28T08:16:31.712Z,12.00
2023-04-28T08:18:59.570Z,12.10
2023-04-28T08:21:29.556Z,11.90
2023-04-28T08:23:56.359Z,12.10
2023-04-28T08:26:24.660Z,12.20
2023-04-28T08:28:52.009Z,12.20
2023-04-28T08:31:18.779Z,12.30
2023-04-28T08:33:48.473Z,12.50
2023-04-28T08:36:15.361Z,12.50
2023-04-28T08:38:43.090Z,12.60
2023-04-28T08:41:10.191Z,12.60
2023-04-28T08:43:37.414Z,12.60
2023-04-28T08:46:15.341Z,12.60
2023-04-28T08:48:47.359Z,12.60
2023-04-28T08:51:47.881Z,12.60
2023-04-28T08:54:26.069Z,12.60
2023-04-28T08:56:55.614Z,12.50
2023-04-28T08:59:22.738Z,12.50
2023-04-28T09:01:51.974Z,12.50
2023-04-28T09:04:21.294Z,12.60
2023-04-28T09:06:48.734Z,12.60
2023-04-28T09:09:35.702Z,12.70
2023-04-28T09:12:05.282Z,12.60
2023-04-28T09:14:35.117Z,12.60
2023-04-28T09:17:03.562Z,12.70
2023-04-28T09:19:38.182Z,12.80
2023-04-28T09:22:18.110Z,12.80
2023-04-28T09:24:55.386Z,12.70
2023-04-28T09:27:28.308Z,12.70
2023-04-28T09:29:55.434Z,12.80
2023-04-28T09:32:24.474Z,12.80
2023-04-28T09:34:57.117Z,12.80
2023-04-28T09:37:27.393Z,12.80
2023-04-28T09:39:55.402Z,12.90
2023-04-28T09:42:43.247Z,12.90
2023-04-28T09:45:16.197Z,12.80
2023-04-28T09:47:47.152Z,12.90
2023-04-28T09:50:17.503Z,12.90
2023-04-28T09:52:57.138Z,12.90
2023-04-28T09:55:28.409Z,12.90
2023-04-28T09:57:56.420Z,12.90
2023-04-28T10:00:23.824Z,13.00
2023-04-28T10:02:51.684Z,13.10
2023-04-28T10:05:21.834Z,13.10
2023-04-28T10:07:49.400Z,13.10
2023-04-28T10:10:17.003Z,13.20
2023-04-28T10:12:44.817Z,13.20
2023-04-28T10:15:13.449Z,13.20
2023-04-28T10:17:40.448Z,13.20
2023-04-28T10:20:12.475Z,13.10
2023-04-28T10:23:32.099Z,13.10
2023-04-28T10:25:59.903Z,13.10
2023-04-28T10:28:51.924Z,13.00
2023-04-28T10:31:21.369Z,13.10
2023-04-28T10:33:50.833Z,13.00
2023-04-28T10:36:54.981Z,13.00
2023-04-28T10:39:21.809Z,13.10
2023-04-28T10:41:49.077Z,13.10
2023-04-28T10:44:31.433Z,13.10
2023-04-28T10:47:07.594Z,13.10
2023-04-28T10:49:57.782Z,13.20
2023-04-28T10:52:34.971Z,13.30
2023-04-28T10:55:42.589Z,13.30
2023-04-28T10:58:27.643Z,13.40
2023-04-28T11:00:55.627Z,13.40
2023-04-28T11:03:51.712Z,13.50
2023-04-28T11:06:28.994Z,13.50
2023-04-28T11:09:04.054Z,13.50
2023-04-28T11:11:39.374Z,13.50
2023-04-28T11:14:21.465Z,13.60
2023-04-28T11:16:56.330Z,13.60
2023-04-28T11:19:26.418Z,13.60
2023-04-28T11:21:59.493Z,13.60
2023-04-28T11:24:31.121Z,13.70
2023-04-28T11:26:59.539Z,13.80
2023-04-28T11:29:40.989Z,13.70
2023-04-28T11:32:10.290Z,13.70
2023-04-28T11:34:37.807Z,13.80
2023-04-28T11:37:07.024Z,13.90
2023-04-28T11:39:35.234Z,13.90
2023-04-28T11:42:10.480Z,13.80
2023-04-28T11:44:37.965Z,13.80
2023-04-28T11:47:06.838Z,13.80
2023-04-28T11:49:46.831Z,13.80
2023-04-28T11:52:13.965Z,14.00
2023-04-28T11:54:44.387Z,13.90
2023-04-28T11:57:21.922Z,13.80
2023-04-28T11:59:51.304Z,13.90
2023-04-28T12:02:30.745Z,13.80
2023-04-28T12:05:10.220Z,13.60
2023-04-28T12:07:45.113Z,13.60
2023-04-28T12:10:20.458Z,13.60
2023-04-28T12:12:52.572Z,13.60
2023-04-28T12:15:24.711Z,13.60
2023-04-28T12:17:52.024Z,13.70
2023-04-28T12:20:37.207Z,13.60
2023-04-28T12:23:05.358Z,13.70
2023-04-28T12:25:33.969Z,13.60
2023-04-28T12:28:08.329Z,13.70
2023-04-28T12:30:40.161Z,13.60
2023-04-28T12:33:23.830Z,13.60
2023-04-28T12:35:50.727Z,13.70
2023-04-28T12:38:17.971Z,13.70
2023-04-28T12:40:44.726Z,13.70
2023-04-28T12:43:11.431Z,13.80
2023-04-28T12:45:39.018Z,13.90
2023-04-28T12:48:06.487Z,13.90
2023-04-28T12:50:33.742Z,13.80
2023-04-28T12:53:00.820Z,13.80
2023-04-28T12:55:29.281Z,13.70
2023-04-28T12:57:55.984Z,13.80
2023-04-28T13:00:25.317Z,13.90
2023-04-28T13:02:53.253Z,13.90
2023-04-28T13:05:20.285Z,13.70
2023-04-28T13:07:51.584Z,13.80
2023-04-28T13:10:19.351Z,13.90
2023-04-28T13:12:46.109Z,13.90
2023-04-28T13:15:13.018Z,13.90
2023-04-28T13:17:39.935Z,13.90
2023-04-28T13:20:10.565Z,14.00
2023-04-28T13:22:37.362Z,14.10
2023-04-28T13:25:04.755Z,14.10
2023-04-28T13:27:33.281Z,14.00
2023-04-28T13:30:00.086Z,13.90
2023-04-28T13:32:28.067Z,14.00
2023-04-28T13:34:55.002Z,14.00
2023-04-28T13:37:21.836Z,14.00
2023-04-28T13:39:48.630Z,13.90
2023-04-28T13:42:16.092Z,13.90
2023-04-28T13:44:42.935Z,13.90
2023-04-28T13:47:11.193Z,13.70
2023-04-28T13:49:39.538Z,13.70
2023-04-28T13:52:06.504Z,13.60
2023-04-28T13:54:33.196Z,13.70
2023-04-28T13:56:59.950Z,13.50
2023-04-28T13:59:26.719Z,13.60
2023-04-28T14:01:53.541Z,13.60
2023-04-28T14:04:20.371Z,13.60
2023-04-28T14:06:47.329Z,13.60
2023-04-28T14:09:14.088Z,13.70
2023-04-28T14:11:40.888Z,13.70
2023-04-28T14:14:07.576Z,13.60
2023-04-28T14:16:34.405Z,13.70
2023-04-28T14:19:01.750Z,13.60
2023-04-28T14:21:28.643Z,13.60
2023-04-28T14:23:55.465Z,13.50
2023-04-28T14:26:24.348Z,13.60
2023-04-28T14:28:51.083Z,13.60
2023-04-28T14:31:18.109Z,13.60
2023-04-28T14:33:44.912Z,13.60
2023-04-28T14:36:11.668Z,13.60
2023-04-28T14:38:40.235Z,13.70
2023-04-28T14:41:07.117Z,13.60
2023-04-28T14:43:34.929Z,13.70
2023-04-28T14:46:01.820Z,13.60
2023-04-28T14:48:28.662Z,13.60
2023-04-28T14:50:55.420Z,13.60
2023-04-28T14:53:22.393Z,13.60
2023-04-28T14:55:49.747Z,13.50
2023-04-28T14:58:16.595Z,13.50
2023-04-28T15:00:43.605Z,13.50
2023-04-28T15:03:10.425Z,13.50
2023-04-28T15:05:37.504Z,13.50
2023-04-28T15:08:04.612Z,13.60
2023-04-28T15:10:40.487Z,13.40
2023-04-28T15:13:07.608Z,13.40
2023-04-28T15:15:35.360Z,13.40
2023-04-28T15:18:03.578Z,13.40
2023-04-28T15:20:33.178Z,13.40
2023-04-28T15:23:00.564Z,13.40
2023-04-28T15:25:28.207Z,13.40
2023-04-28T15:27:55.034Z,13.40
2023-04-28T15:30:21.998Z,13.40
2023-04-28T15:32:51.894Z,13.30
2023-04-28T15:35:18.808Z,13.30
2023-04-28T15:37:47.610Z,13.20
2023-04-28T15:40:17.070Z,13.30
2023-04-28T15:42:52.180Z,13.30
2023-04-28T15:45:22.796Z,13.40
2023-04-28T15:47:50.936Z,13.40
2023-04-28T15:50:20.183Z,13.40
2023-04-28T15:52:49.796Z,13.40
2023-04-28T15:55:18.465Z,13.40
2023-04-28T15:57:48.359Z,13.40
2023-04-28T16:00:15.884Z,13.40
2023-04-28T16:02:44.476Z,13.40
2023-04-28T16:05:12.156Z,13.40
2023-04-28T16:07:40.874Z,13.60
2023-04-28T16:10:10.606Z,13.50
2023-04-28T16:12:39.017Z,13.60
2023-04-28T16:15:08.663Z,13.60
2023-04-28T16:17:38.248Z,13.60
2023-04-28T16:20:11.572Z,13.60
2023-04-28T16:22:43.134Z,13.60
2023-04-28T16:25:12.934Z,13.60
2023-04-28T16:27:40.739Z,13.60
2023-04-28T16:30:08.544Z,13.50
2023-04-28T16:32:38.804Z,13.60
2023-04-28T16:35:06.425Z,13.60
2023-04-28T16:37:33.402Z,13.50
2023-04-28T16:40:03.029Z,13.50
2023-04-28T16:42:29.737Z,13.40
2023-04-28T16:44:56.501Z,13.40
2023-04-28T16:47:23.259Z,13.40
2023-04-28T16:49:50.174Z,13.30
2023-04-28T16:52:17.145Z,13.30
2023-04-28T16:54:44.191Z,13.30
2023-04-28T16:57:10.961Z,13.20
2023-04-28T16:59:37.748Z,13.20
2023-04-28T17:02:04.938Z,13.20
2023-04-28T17:04:32.443Z,13.10
2023-04-28T17:06:59.879Z,13.20
2023-04-28T17:09:27.432Z,13.00
2023-04-28T17:11:54.934Z,13.00
2023-04-28T17:14:25.083Z,13.00
2023-04-28T17:16:57.736Z,13.00
2023-04-28T17:19:24.502Z,12.90
2023-04-28T17:21:52.726Z,12.90
2023-04-28T17:24:19.543Z,12.80
2023-04-28T17:26:48.816Z,12.80
2023-04-28T17:29:16.252Z,12.70
2023-04-28T17:31:43.284Z,12.70
2023-04-28T17:34:10.345Z,12.70
2023-04-28T17:36:37.260Z,12.70
2023-04-28T17:39:04.554Z,12.70
2023-04-28T17:41:31.820Z,12.70
2023-04-28T17:43:58.621Z,12.60
2023-04-28T17:46:26.173Z,12.60
2023-04-28T17:48:53.069Z,12.60
2023-04-28T17:51:20.909Z,12.50
2023-04-28T17:53:50.898Z,12.50
2023-04-28T17:56:17.591Z,12.50
2023-04-28T17:58:44.387Z,12.50
2023-04-28T18:01:11.545Z,12.50
2023-04-28T18:03:39.763Z,12.40
2023-04-28T18:06:08.388Z,12.40
2023-04-28T18:08:36.852Z,12.40
2023-04-28T18:11:06.586Z,12.40
2023-04-28T18:13:33.518Z,12.40
2023-04-28T18:16:01.865Z,12.40
2023-04-28T18:18:30.586Z,12.40
2023-04-28T18:20:59.649Z,12.40
2023-04-28T18:23:27.218Z,12.30
2023-04-28T18:25:53.969Z,12.40
2023-04-28T18:28:20.781Z,12.40
2023-04-28T18:30:47.630Z,12.40
2023-04-28T18:33:14.615Z,12.30
2023-04-28T18:35:41.440Z,12.20
2023-04-28T18:38:08.165Z,12.20
2023-04-28T18:40:38.527Z,12.20
2023-04-28T18:43:07.685Z,12.20
2023-04-28T18:45:41.055Z,12.10
2023-04-28T18:48:09.002Z,12.10
2023-04-28T18:50:37.045Z,12.10
2023-04-28T18:53:05.015Z,12.20
2023-04-28T18:55:34.999Z,12.20
2023-04-28T18:58:02.193Z,12.20
2023-04-28T19:00:29.452Z,12.20
2023-04-28T19:02:58.897Z,12.20
2023-04-28T19:05:26.249Z,12.20
2023-04-28T19:07:53.009Z,12.20
2023-04-28T19:10:19.737Z,12.30
2023-04-28T19:12:46.484Z,12.20
2023-04-28T19:15:13.675Z,12.20
2023-04-28T19:17:40.773Z,12.00
2023-04-28T19:20:09.420Z,12.00
2023-04-28T19:22:44.423Z,11.80
2023-04-28T19:25:11.994Z,11.80
2023-04-28T19:27:42.853Z,11.80
2023-04-28T19:30:14.463Z,11.80
2023-04-28T19:32:42.363Z,11.80
2023-04-28T19:35:09.844Z,11.70
2023-04-28T19:37:36.699Z,11.70
2023-04-28T19:40:07.306Z,11.70
2023-04-28T19:42:37.266Z,11.60
2023-04-28T19:45:06.167Z,11.70
2023-04-28T19:47:34.144Z,11.80
2023-04-28T19:50:01.479Z,11.60
2023-04-28T19:52:28.193Z,11.60
2023-04-28T19:54:55.466Z,11.50
2023-04-28T19:57:24.170Z,11.50
2023-04-28T19:59:51.146Z,11.40
2023-04-28T20:02:18.813Z,11.50
2023-04-28T20:04:46.155Z,11.40
2023-04-28T20:07:13.263Z,11.50
2023-04-28T20:09:40.074Z,11.50
2023-04-28T20:12:09.342Z,11.50
2023-04-28T20:14:37.466Z,11.50
2023-04-28T20:17:05.445Z,11.40
2023-04-28T20:19:32.363Z,11.30
2023-04-28T20:22:02.450Z,11.30
2023-04-28T20:24:29.156Z,11.20
2023-04-28T20:26:55.888Z,11.20
2023-04-28T20:29:22.814Z,11.10
2023-04-28T20:31:49.913Z,11.20
2023-04-28T20:34:17.270Z,11.10
2023-04-28T20:36:44.071Z,11.10
2023-04-28T20:39:11.670Z,11.10
2023-04-28T20:41:40.839Z,11.20
2023-04-28T20:44:08.771Z,11.10
2023-04-28T20:46:35.653Z,11.00
2023-04-28T20:49:04.319Z,11.10
2023-04-28T20:51:35.112Z,11.00
2023-04-28T20:54:03.948Z,11.10
2023-04-28T20:56:33.142Z,10.90
2023-04-28T20:58:59.884Z,11.00
2023-04-28T21:01:26.784Z,10.90
2023-04-28T21:03:53.738Z,10.90
2023-04-28T21:06:20.472Z,10.90
2023-04-28T21:08:47.267Z,10.90
2023-04-28T21:11:18.425Z,10.90
2023-04-28T21:13:45.746Z,11.00
2023-04-28T21:16:20.956Z,10.90
2023-04-28T21:18:48.903Z,10.90
2023-04-28T21:21:15.725Z,10.80
2023-04-28T21:23:42.717Z,10.80
2023-04-28T21:26:10.117Z,10.80
2023-04-28T21:28:37.442Z,10.80
2023-04-28T21:31:04.963Z,10.80
2023-04-28T21:33:34.763Z,10.80
2023-04-28T21:36:07.880Z,10.70
2023-04-28T21:38:36.713Z,10.60
2023-04-28T21:41:03.920Z,10.70
2023-04-28T21:43:30.907Z,10.60
2023-04-28T21:45:57.676Z,10.80
2023-04-28T21:48:38.723Z,10.70
2023-04-28T21:51:05.712Z,10.70
2023-04-28T21:53:32.558Z,10.70
2023-04-28T21:55:59.371Z,10.60
2023-04-28T21:58:26.181Z,10.60
2023-04-28T22:00:53.410Z,10.50
2023-04-28T22:03:21.589Z,10.50
2023-04-28T22:05:48.789Z,10.50
2023-04-28T22:08:17.048Z,10.50
2023-04-28T22:10:47.732Z,10.50
2023-04-28T22:13:15.770Z,10.30
2023-04-28T22:15:42.934Z,10.20
2023-04-28T22:18:09.711Z,10.10
2023-04-28T22:20:36.687Z,10.20
2023-04-28T22:23:03.584Z,10.20
2023-04-28T22:25:30.446Z,10.20
2023-04-28T22:27:58.433Z,10.10
2023-04-28T22:30:26.189Z,10.20
2023-04-28T22:32:53.373Z,10.10
2023-04-28T22:35:20.214Z,10.20
2023-04-28T22:37:46.976Z,10.30
2023-04-28T22:40:13.902Z,10.20
2023-04-28T22:42:42.342Z,10.30
2023-04-28T22:45:11.772Z,10.40
2023-04-28T22:47:43.356Z,10.40
2023-04-28T22:50:11.220Z,10.40
2023-04-28T22:52:38.114Z,10.30
2023-04-28T22:55:06.403Z,10.30
2023-04-28T22:57:33.385Z,10.40
2023-04-28T23:00:00.338Z,10.30
2023-04-28T23:02:27.333Z,10.30
2023-04-28T23:04:56.283Z,10.40
2023-04-28T23:07:23.218Z,10.40
2023-04-28T23:09:50.137Z,10.40
2023-04-28T23:12:17.235Z,10.30
2023-04-28T23:14:43.983Z,10.20
2023-04-28T23:17:10.801Z,10.20
2023-04-28T23:19:39.023Z,10.20
2023-04-28T23:22:08.147Z,10.20
2023-04-28T23:24:37.231Z,10.30
2023-04-28T23:27:04.510Z,10.20
2023-04-28T23:29:31.810Z,10.20
2023-04-28T23:31:58.725Z,10.10
2023-04-28T23:34:25.726Z,10.10
2023-04-28T23:36:52.485Z,10.10
2023-04-28T23:39:19.189Z,10.00
2023-04-28T23:41:46.079Z,10.00
2023-04-28T23:44:12.912Z,10.00
2023-04-28T23:46:39.748Z,10.00
2023-04-28T23:49:06.674Z,10.00
2023-04-28T23:51:33.490Z,10.00
2023-04-28T23:54:01.505Z,10.00
2023-04-28T23:56:28.501Z,10.00
2023-04-28T23:58:55.294Z,10.00
